Time;durP1;ratioP1;P1;durP2;ratioP2;P2;SDS_P1;SDS_P2;PMS_P1;PMS_P2;Temp;Humidity;BMP_temperature;BMP_pressure;BME280_temperature;BME280_humidity;BME280_pressure;Samples;Min_cycle;Max_cycle;Signal;HPM_P1;HPM_P2
2023/08/15 00:00:56;;;;;;;6.80;3.70;;;;;;;;;;5028192;28;20152;-68
2023/08/15 00:03:22;;;;;;;8.50;3.90;;;;;;;;;;5024167;28;20033;-68
2023/08/15 00:05:48;;;;;;;8.73;3.78;;;;;;;;;;5027099;28;20029;-67
2023/08/15 00:08:14;;;;;;;6.95;3.53;;;;;;;;;;5026945;28;20531;-68
2023/08/15 00:10:40;;;;;;;8.18;3.92;;;;;;;;;;5027314;28;20626;-67
2023/08/15 00:13:07;;;;;;;8.32;4.05;;;;;;;;;;5027374;28;20084;-68
2023/08/15 00:15:34;;;;;;;7.07;4.10;;;;;;;;;;5024518;28;20037;-68
2023/08/15 00:18:00;;;;;;;8.38;3.80;;;;;;;;;;5027463;28;20956;-68
2023/08/15 00:20:27;;;;;;;8.07;3.85;;;;;;;;;;5017544;28;20060;-68
2023/08/15 00:22:53;;;;;;;8.48;3.55;;;;;;;;;;5028981;28;20040;-68
2023/08/15 00:25:19;;;;;;;9.93;3.50;;;;;;;;;;5021717;28;20533;-68
2023/08/15 00:27:45;;;;;;;9.98;3.65;;;;;;;;;;5028214;28;20035;-68
2023/08/15 00:30:13;;;;;;;7.82;3.83;;;;;;;;;;5022948;28;20029;-68
2023/08/15 00:32:39;;;;;;;6.57;3.78;;;;;;;;;;5029340;28;20036;-68
2023/08/15 00:35:06;;;;;;;11.65;4.25;;;;;;;;;;5021006;28;20036;-68
2023/08/15 00:37:33;;;;;;;9.15;3.85;;;;;;;;;;5030090;28;20056;-68
2023/08/15 00:39:59;;;;;;;17.65;3.88;;;;;;;;;;5029913;28;21103;-68
2023/08/15 00:42:25;;;;;;;6.90;4.32;;;;;;;;;;5013417;28;20032;-68
2023/08/15 00:44:51;;;;;;;6.88;3.50;;;;;;;;;;5024351;28;20037;-68
2023/08/15 00:47:19;;;;;;;6.32;4.03;;;;;;;;;;5032083;28;20128;-68
2023/08/15 00:49:45;;;;;;;7.05;4.00;;;;;;;;;;5032796;28;20021;-68
2023/08/15 00:52:13;;;;;;;9.35;4.05;;;;;;;;;;5032933;28;20043;-68
2023/08/15 00:54:41;;;;;;;7.70;3.92;;;;;;;;;;5032006;28;20026;-68
2023/08/15 00:57:07;;;;;;;7.20;4.07;;;;;;;;;;5032793;28;20029;-68
2023/08/15 00:59:33;;;;;;;9.38;4.30;;;;;;;;;;5032797;28;20522;-68
2023/08/15 01:01:59;;;;;;;7.45;3.50;;;;;;;;;;5030715;28;20048;-68
2023/08/15 01:04:26;;;;;;;9.75;4.32;;;;;;;;;;5027978;28;20029;-68
2023/08/15 01:06:52;;;;;;;8.73;4.20;;;;;;;;;;5031749;28;20917;-68
2023/08/15 01:09:18;;;;;;;7.60;4.28;;;;;;;;;;5016272;28;20550;-68
2023/08/15 01:11:51;;;;;;;9.05;3.95;;;;;;;;;;5031470;28;20033;-68
2023/08/15 01:14:20;;;;;;;7.90;4.32;;;;;;;;;;5030883;28;20044;-68
2023/08/15 01:16:48;;;;;;;7.03;3.80;;;;;;;;;;5030357;28;20036;-68
2023/08/15 01:19:33;;;;;;;9.80;4.60;;;;;;;;;;5024677;28;21798;-68
2023/08/15 01:22:01;;;;;;;8.20;4.25;;;;;;;;;;5030911;28;20032;-68
2023/08/15 01:24:27;;;;;;;8.27;4.43;;;;;;;;;;5031466;28;20035;-68
2023/08/15 01:26:53;;;;;;;8.18;4.70;;;;;;;;;;5030171;28;20040;-68
2023/08/15 01:29:19;;;;;;;8.98;5.05;;;;;;;;;;5025095;28;21019;-67
2023/08/15 01:32:08;;;;;;;15.27;5.88;;;;;;;;;;5031864;28;20143;-68
2023/08/15 01:34:42;;;;;;;8.82;4.38;;;;;;;;;;5007389;28;20403;-68
2023/08/15 01:37:10;;;;;;;8.00;4.80;;;;;;;;;;5031681;28;20039;-68
2023/08/15 01:39:38;;;;;;;10.65;4.40;;;;;;;;;;5030547;28;20109;-68
2023/08/15 01:42:04;;;;;;;7.88;4.30;;;;;;;;;;5032215;28;20028;-68
2023/08/15 01:44:31;;;;;;;9.70;4.53;;;;;;;;;;5031335;28;20556;-68
2023/08/15 01:46:57;;;;;;;10.15;5.20;;;;;;;;;;5030436;28;20442;-68
2023/08/15 01:49:23;;;;;;;8.38;4.80;;;;;;;;;;5026348;28;20074;-68
2023/08/15 01:51:50;;;;;;;13.07;5.32;;;;;;;;;;5029023;28;20043;-68
2023/08/15 01:54:16;;;;;;;8.85;5.32;;;;;;;;;;5023030;28;20036;-68
2023/08/15 01:56:42;;;;;;;13.20;5.13;;;;;;;;;;5029587;28;20040;-68
2023/08/15 01:59:09;;;;;;;10.18;5.00;;;;;;;;;;5029745;28;21715;-68
2023/08/15 02:01:35;;;;;;;8.40;4.90;;;;;;;;;;5032353;28;21213;-68
2023/08/15 02:04:01;;;;;;;7.78;4.75;;;;;;;;;;5028967;28;20044;-68
2023/08/15 02:06:27;;;;;;;7.18;4.68;;;;;;;;;;5032701;28;20038;-68
2023/08/15 02:08:53;;;;;;;9.77;5.15;;;;;;;;;;5034875;28;20029;-68
2023/08/15 02:11:19;;;;;;;9.43;6.00;;;;;;;;;;5033661;28;20063;-68
2023/08/15 02:13:45;;;;;;;8.93;5.47;;;;;;;;;;5034375;28;20098;-68
2023/08/15 02:16:11;;;;;;;11.35;5.20;;;;;;;;;;5034484;28;20037;-68
2023/08/15 02:18:37;;;;;;;11.25;5.45;;;;;;;;;;5032734;28;20063;-68
2023/08/15 02:21:03;;;;;;;8.30;5.38;;;;;;;;;;5034603;28;20033;-68
2023/08/15 02:23:29;;;;;;;11.20;5.30;;;;;;;;;;5032477;28;20037;-68
2023/08/15 02:25:55;;;;;;;10.02;5.82;;;;;;;;;;5035122;28;20037;-68
2023/08/15 02:28:21;;;;;;;10.98;5.75;;;;;;;;;;5001228;28;20045;-68
2023/08/15 02:30:48;;;;;;;9.52;5.55;;;;;;;;;;5034400;28;20028;-68
2023/08/15 02:33:14;;;;;;;12.45;6.13;;;;;;;;;;5038197;28;20082;-68
2023/08/15 02:35:41;;;;;;;10.43;5.57;;;;;;;;;;5037976;28;20029;-68
2023/08/15 02:38:07;;;;;;;11.52;5.70;;;;;;;;;;5029413;28;20075;-68
2023/08/15 02:40:33;;;;;;;8.23;5.47;;;;;;;;;;5037988;28;20058;-68
2023/08/15 02:43:00;;;;;;;11.13;6.68;;;;;;;;;;5030161;28;20992;-68
2023/08/15 02:45:26;;;;;;;9.18;5.90;;;;;;;;;;5037416;28;20037;-68
2023/08/15 02:47:52;;;;;;;10.60;6.20;;;;;;;;;;5037604;28;20042;-68
2023/08/15 02:50:18;;;;;;;10.02;6.38;;;;;;;;;;5037276;28;20033;-68
2023/08/15 02:52:44;;;;;;;10.35;6.65;;;;;;;;;;5030332;28;21870;-68
2023/08/15 02:55:10;;;;;;;11.20;6.90;;;;;;;;;;5036893;28;20082;-68
2023/08/15 02:57:36;;;;;;;16.08;7.40;;;;;;;;;;5025020;28;20040;-68
2023/08/15 03:00:03;;;;;;;14.82;8.23;;;;;;;;;;5035258;28;20111;-68
2023/08/15 03:02:29;;;;;;;10.55;6.85;;;;;;;;;;5024799;28;20086;-67
2023/08/15 03:04:55;;;;;;;11.77;7.65;;;;;;;;;;5034283;28;20048;-67
2023/08/15 03:07:21;;;;;;;14.13;7.15;;;;;;;;;;5031998;28;20547;-68
2023/08/15 03:09:48;;;;;;;10.43;6.85;;;;;;;;;;5002952;28;20499;-67
2023/08/15 03:12:15;;;;;;;12.65;7.45;;;;;;;;;;5030390;28;20049;-68
2023/08/15 03:14:41;;;;;;;10.45;6.53;;;;;;;;;;5004974;28;20045;-68
2023/08/15 03:17:07;;;;;;;11.38;6.70;;;;;;;;;;5016669;28;20029;-68
2023/08/15 03:19:33;;;;;;;15.35;7.30;;;;;;;;;;5035124;28;20028;-68
2023/08/15 03:21:59;;;;;;;10.48;6.50;;;;;;;;;;5035290;28;20036;-68
2023/08/15 03:24:30;;;;;;;12.00;6.90;;;;;;;;;;5037437;28;20558;-68
2023/08/15 03:26:56;;;;;;;12.18;6.85;;;;;;;;;;5035667;28;21779;-68
2023/08/15 03:29:22;;;;;;;14.27;7.00;;;;;;;;;;5035994;28;20040;-67
2023/08/15 03:31:48;;;;;;;11.93;7.20;;;;;;;;;;5037255;28;20029;-68
2023/08/15 03:34:14;;;;;;;11.18;7.43;;;;;;;;;;5036576;28;21317;-68
2023/08/15 03:36:41;;;;;;;12.07;9.18;;;;;;;;;;5034876;28;20097;-68
2023/08/15 03:39:07;;;;;;;13.13;8.50;;;;;;;;;;5035954;28;20040;-68
2023/08/15 03:41:33;;;;;;;12.85;8.30;;;;;;;;;;5036829;28;20119;-68
2023/08/15 03:43:59;;;;;;;15.20;9.27;;;;;;;;;;5036439;28;20042;-68
2023/08/15 03:46:25;;;;;;;13.95;8.23;;;;;;;;;;5036724;28;20048;-68
2023/08/15 03:48:51;;;;;;;18.17;8.75;;;;;;;;;;5036311;28;20091;-68
2023/08/15 03:51:17;;;;;;;14.02;8.50;;;;;;;;;;5036787;28;21012;-68
2023/08/15 03:53:43;;;;;;;13.93;8.25;;;;;;;;;;5037026;28;20581;-68
2023/08/15 03:56:09;;;;;;;10.65;7.05;;;;;;;;;;5036191;28;20021;-68
2023/08/15 03:58:35;;;;;;;14.00;7.93;;;;;;;;;;5036994;28;20063;-68
2023/08/15 04:01:01;;;;;;;14.65;8.85;;;;;;;;;;5035641;28;20024;-68
2023/08/15 04:03:27;;;;;;;13.02;8.07;;;;;;;;;;5036668;28;20029;-68
2023/08/15 04:05:53;;;;;;;15.98;8.65;;;;;;;;;;5034877;28;20045;-68
2023/08/15 04:08:19;;;;;;;12.85;8.10;;;;;;;;;;5030144;28;20041;-68
2023/08/15 04:10:46;;;;;;;12.10;7.82;;;;;;;;;;5037031;28;20029;-68
2023/08/15 04:13:12;;;;;;;15.48;8.63;;;;;;;;;;5036133;28;20076;-67
2023/08/15 04:15:39;;;;;;;17.25;8.77;;;;;;;;;;5037015;28;20036;-68
2023/08/15 04:18:06;;;;;;;15.10;9.15;;;;;;;;;;5032224;28;20052;-68
2023/08/15 04:20:32;;;;;;;12.15;8.38;;;;;;;;;;5038500;28;20061;-68
2023/08/15 04:22:58;;;;;;;12.68;9.07;;;;;;;;;;5032664;28;20834;-68
2023/08/15 04:25:24;;;;;;;13.02;8.02;;;;;;;;;;5039941;28;20622;-68
2023/08/15 04:27:50;;;;;;;13.00;8.93;;;;;;;;;;5032184;28;20033;-68
2023/08/15 04:30:17;;;;;;;12.57;8.45;;;;;;;;;;5040247;28;20039;-68
2023/08/15 04:32:44;;;;;;;14.00;8.98;;;;;;;;;;5032556;28;20098;-67
2023/08/15 04:35:10;;;;;;;14.02;8.68;;;;;;;;;;5039052;28;20036;-68
2023/08/15 04:37:36;;;;;;;15.82;8.70;;;;;;;;;;5041378;28;20044;-68
2023/08/15 04:40:02;;;;;;;14.65;9.48;;;;;;;;;;5021191;28;20076;-68
2023/08/15 04:42:28;;;;;;;13.85;8.73;;;;;;;;;;5038749;28;20588;-68
2023/08/15 04:44:54;;;;;;;13.32;9.32;;;;;;;;;;5039706;28;20036;-68
2023/08/15 04:47:20;;;;;;;14.35;9.00;;;;;;;;;;5039600;28;20113;-68
2023/08/15 04:49:46;;;;;;;12.82;7.65;;;;;;;;;;5038959;28;20029;-68
2023/08/15 04:52:16;;;;;;;10.98;8.05;;;;;;;;;;5039013;28;20072;-68
2023/08/15 04:54:45;;;;;;;11.45;7.75;;;;;;;;;;5039792;28;20032;-67
2023/08/15 04:57:11;;;;;;;10.68;7.03;;;;;;;;;;5039651;28;20518;-68
2023/08/15 04:59:37;;;;;;;11.70;7.82;;;;;;;;;;5039122;28;20479;-68
2023/08/15 05:02:03;;;;;;;12.25;7.45;;;;;;;;;;5037608;28;20041;-68
2023/08/15 05:04:29;;;;;;;11.48;8.00;;;;;;;;;;5039706;28;20025;-68
2023/08/15 05:06:55;;;;;;;12.18;7.65;;;;;;;;;;5039337;28;20036;-68
2023/08/15 05:09:21;;;;;;;11.57;7.43;;;;;;;;;;5039251;28;21944;-68
2023/08/15 05:11:47;;;;;;;11.57;7.90;;;;;;;;;;5038705;28;20167;-68
2023/08/15 05:14:13;;;;;;;12.57;7.80;;;;;;;;;;5037878;28;20076;-68
2023/08/15 05:16:39;;;;;;;17.50;7.78;;;;;;;;;;5035551;28;20102;-69
2023/08/15 05:19:05;;;;;;;16.20;7.50;;;;;;;;;;5038633;28;20197;-68
2023/08/15 05:21:31;;;;;;;8.73;6.35;;;;;;;;;;5037516;28;20086;-68
2023/08/15 05:23:57;;;;;;;13.15;7.53;;;;;;;;;;5038357;28;20032;-68
2023/08/15 05:26:24;;;;;;;13.15;7.13;;;;;;;;;;5039487;28;20033;-68
2023/08/15 05:28:50;;;;;;;11.82;6.90;;;;;;;;;;5038006;28;20502;-68
2023/08/15 05:31:16;;;;;;;10.75;6.72;;;;;;;;;;5038709;28;20695;-68
2023/08/15 05:33:42;;;;;;;14.70;7.00;;;;;;;;;;5039282;28;20051;-68
2023/08/15 05:36:08;;;;;;;11.52;7.13;;;;;;;;;;5038239;28;20021;-67
2023/08/15 05:38:36;;;;;;;11.77;7.18;;;;;;;;;;5040119;28;20043;-68
2023/08/15 05:41:02;;;;;;;16.63;6.97;;;;;;;;;;5038435;28;20929;-68
2023/08/15 05:43:28;;;;;;;14.50;6.70;;;;;;;;;;5039556;28;20064;-68
2023/08/15 05:45:54;;;;;;;12.55;6.80;;;;;;;;;;5039077;28;20044;-68
2023/08/15 05:48:20;;;;;;;10.73;6.78;;;;;;;;;;5039738;28;20421;-68
2023/08/15 05:50:46;;;;;;;12.85;6.72;;;;;;;;;;5038234;28;20028;-68
2023/08/15 05:53:12;;;;;;;9.77;6.00;;;;;;;;;;5030716;28;20102;-68
2023/08/15 05:55:38;;;;;;;12.60;6.00;;;;;;;;;;5038496;28;20445;-69
2023/08/15 05:58:04;;;;;;;10.60;5.65;;;;;;;;;;5039064;28;20033;-69
2023/08/15 06:00:31;;;;;;;12.35;6.10;;;;;;;;;;5038734;28;20032;-68
2023/08/15 06:02:57;;;;;;;14.32;5.60;;;;;;;;;;5037545;28;21854;-69
2023/08/15 06:05:23;;;;;;;9.25;5.20;;;;;;;;;;5039012;28;20412;-69
2023/08/15 06:07:49;;;;;;;10.85;5.20;;;;;;;;;;5038668;28;20033;-69
2023/08/15 06:10:15;;;;;;;8.73;4.70;;;;;;;;;;5038424;28;20482;-69
2023/08/15 06:12:41;;;;;;;9.82;5.18;;;;;;;;;;5038176;28;20033;-69
2023/08/15 06:15:07;;;;;;;12.50;5.18;;;;;;;;;;5036900;28;20044;-69
2023/08/15 06:17:33;;;;;;;11.40;5.30;;;;;;;;;;5037485;28;20041;-69
2023/08/15 06:19:59;;;;;;;9.93;4.88;;;;;;;;;;5036327;28;20041;-69
2023/08/15 06:22:25;;;;;;;14.73;6.30;;;;;;;;;;5037259;28;20036;-69
2023/08/15 06:24:51;;;;;;;9.60;4.68;;;;;;;;;;5038246;28;20403;-69
2023/08/15 06:27:17;;;;;;;13.65;4.47;;;;;;;;;;5036859;28;20060;-69
2023/08/15 06:29:43;;;;;;;10.63;4.57;;;;;;;;;;5037140;28;20388;-68
2023/08/15 06:32:24;;;;;;;11.70;5.13;;;;;;;;;;5020027;28;20036;-69
2023/08/15 06:34:50;;;;;;;9.95;4.75;;;;;;;;;;5037837;28;20027;-69
2023/08/15 06:37:19;;;;;;;13.30;5.57;;;;;;;;;;5036531;28;20054;-69
2023/08/15 06:39:45;;;;;;;14.23;6.00;;;;;;;;;;5036095;28;21293;-69
2023/08/15 06:42:11;;;;;;;12.52;5.55;;;;;;;;;;5036239;28;20772;-69
2023/08/15 06:44:37;;;;;;;11.55;6.10;;;;;;;;;;5037799;28;20925;-69
2023/08/15 06:47:03;;;;;;;11.52;5.63;;;;;;;;;;5037526;28;20052;-69
2023/08/15 06:49:30;;;;;;;10.65;5.80;;;;;;;;;;5037840;28;20091;-69
2023/08/15 06:51:56;;;;;;;11.27;5.28;;;;;;;;;;5037582;28;20024;-69
2023/08/15 06:54:22;;;;;;;11.65;5.68;;;;;;;;;;5037131;28;20125;-69
2023/08/15 06:56:48;;;;;;;10.15;5.30;;;;;;;;;;5036940;28;20032;-69
2023/08/15 06:59:14;;;;;;;8.15;4.22;;;;;;;;;;5036710;28;20043;-69
2023/08/15 07:01:41;;;;;;;11.88;4.95;;;;;;;;;;5037448;28;20040;-69
2023/08/15 07:04:07;;;;;;;13.27;4.88;;;;;;;;;;5037335;28;20032;-69
2023/08/15 07:06:33;;;;;;;11.25;4.38;;;;;;;;;;5019541;28;20033;-69
2023/08/15 07:08:59;;;;;;;11.38;4.80;;;;;;;;;;5036011;28;20643;-69
2023/08/15 07:11:25;;;;;;;13.05;4.18;;;;;;;;;;5036944;28;20029;-69
2023/08/15 07:13:51;;;;;;;13.48;4.88;;;;;;;;;;5037026;28;20053;-69
2023/08/15 07:16:17;;;;;;;11.75;4.18;;;;;;;;;;5036617;28;20033;-69
2023/08/15 07:18:43;;;;;;;13.10;4.20;;;;;;;;;;5017922;28;20037;-69
2023/08/15 07:21:09;;;;;;;9.60;3.20;;;;;;;;;;5030450;28;20045;-69
2023/08/15 07:23:35;;;;;;;12.57;3.90;;;;;;;;;;5028468;28;20680;-71
2023/08/15 07:26:04;;;;;;;12.35;3.92;;;;;;;;;;5032316;28;20036;-69
2023/08/15 07:28:30;;;;;;;10.20;3.47;;;;;;;;;;5027923;28;20040;-69
2023/08/15 07:30:56;;;;;;;8.65;3.35;;;;;;;;;;5015418;28;20024;-70
2023/08/15 07:33:23;;;;;;;8.38;3.50;;;;;;;;;;5034689;28;20028;-69
2023/08/15 07:35:49;;;;;;;9.00;3.10;;;;;;;;;;5035158;28;20032;-69
2023/08/15 07:38:15;;;;;;;10.60;3.10;;;;;;;;;;5017680;28;20036;-69
2023/08/15 07:40:42;;;;;;;10.60;3.22;;;;;;;;;;5035490;28;21460;-69
2023/08/15 07:43:08;;;;;;;10.43;3.85;;;;;;;;;;5027829;28;20047;-70
2023/08/15 07:45:34;;;;;;;10.00;3.28;;;;;;;;;;5034753;28;20708;-69
2023/08/15 07:48:00;;;;;;;10.05;2.55;;;;;;;;;;5027834;28;21833;-70
2023/08/15 07:50:27;;;;;;;9.70;3.35;;;;;;;;;;5037673;28;20037;-69
2023/08/15 07:52:54;;;;;;;7.50;2.40;;;;;;;;;;5030999;28;20139;-70
2023/08/15 07:55:20;;;;;;;9.68;2.70;;;;;;;;;;5036780;28;20068;-69
2023/08/15 07:57:46;;;;;;;10.90;2.70;;;;;;;;;;5036882;28;20059;-70
2023/08/15 08:00:13;;;;;;;9.20;2.22;;;;;;;;;;5036919;28;20052;-69
2023/08/15 08:02:40;;;;;;;6.55;2.28;;;;;;;;;;5031432;28;20029;-70
2023/08/15 08:05:07;;;;;;;6.68;2.28;;;;;;;;;;5036975;28;20033;-70
2023/08/15 08:07:37;;;;;;;9.38;2.33;;;;;;;;;;5036045;28;20064;-70
2023/08/15 08:10:03;;;;;;;7.60;2.00;;;;;;;;;;5037779;28;20039;-69
2023/08/15 08:12:30;;;;;;;5.60;1.95;;;;;;;;;;5027914;28;20078;-69
2023/08/15 08:14:56;;;;;;;7.80;2.15;;;;;;;;;;5032431;28;20040;-70
2023/08/15 08:17:23;;;;;;;7.32;1.90;;;;;;;;;;5026296;28;20056;-69
2023/08/15 08:19:49;;;;;;;10.00;2.50;;;;;;;;;;5031447;28;20029;-69
2023/08/15 08:22:15;;;;;;;9.43;2.63;;;;;;;;;;5025469;28;20115;-70
2023/08/15 08:24:41;;;;;;;7.03;2.40;;;;;;;;;;5015650;28;20033;-69
2023/08/15 08:27:07;;;;;;;9.55;2.20;;;;;;;;;;5025452;28;20515;-69
2023/08/15 08:29:33;;;;;;;7.45;2.15;;;;;;;;;;5023686;28;20119;-70
2023/08/15 08:31:59;;;;;;;8.02;2.38;;;;;;;;;;5026184;28;20036;-70
2023/08/15 08:34:25;;;;;;;10.80;2.58;;;;;;;;;;5032761;28;20033;-70
2023/08/15 08:36:51;;;;;;;7.10;2.20;;;;;;;;;;5026025;28;20053;-68
2023/08/15 08:39:18;;;;;;;6.80;2.20;;;;;;;;;;5033327;28;20044;-69
2023/08/15 08:41:44;;;;;;;9.95;2.35;;;;;;;;;;5033793;28;20322;-69
2023/08/15 08:44:11;;;;;;;10.32;2.30;;;;;;;;;;5033171;28;20036;-70
2023/08/15 08:46:37;;;;;;;8.45;2.05;;;;;;;;;;5020058;28;20083;-70
2023/08/15 08:49:04;;;;;;;6.20;1.67;;;;;;;;;;5031504;28;20041;-70
2023/08/15 08:51:32;;;;;;;6.65;1.90;;;;;;;;;;5020516;28;20049;-70
2023/08/15 08:53:58;;;;;;;7.55;2.40;;;;;;;;;;5031946;28;20028;-69
2023/08/15 08:56:28;;;;;;;8.55;2.50;;;;;;;;;;5021940;28;20143;-70
2023/08/15 08:59:02;;;;;;;7.35;1.98;;;;;;;;;;5029127;28;20066;-70
2023/08/15 09:01:31;;;;;;;6.53;1.73;;;;;;;;;;5027934;28;20034;-70
2023/08/15 09:03:57;;;;;;;9.02;2.05;;;;;;;;;;5029986;28;20861;-69
2023/08/15 09:06:26;;;;;;;8.68;2.15;;;;;;;;;;5020073;28;20040;-70
2023/08/15 09:08:52;;;;;;;5.88;1.88;;;;;;;;;;5029320;28;20094;-70
2023/08/15 09:11:18;;;;;;;8.30;1.70;;;;;;;;;;5021086;28;20046;-70
2023/08/15 09:13:48;;;;;;;8.20;2.00;;;;;;;;;;5028656;28;20044;-70
2023/08/15 09:16:14;;;;;;;8.52;2.08;;;;;;;;;;5014526;28;20075;-70
2023/08/15 09:18:40;;;;;;;8.70;2.03;;;;;;;;;;5028059;28;20037;-69
2023/08/15 09:21:06;;;;;;;3.72;1.45;;;;;;;;;;5030208;28;20040;-70
2023/08/15 09:23:32;;;;;;;6.55;1.63;;;;;;;;;;5027943;28;20515;-69
2023/08/15 09:25:59;;;;;;;6.90;1.98;;;;;;;;;;5023549;28;20055;-70
2023/08/15 09:28:25;;;;;;;4.97;1.50;;;;;;;;;;5024264;28;20033;-69
2023/08/15 09:30:52;;;;;;;6.80;1.80;;;;;;;;;;5027718;28;20025;-70
2023/08/15 09:33:18;;;;;;;6.35;1.75;;;;;;;;;;5024028;28;20044;-70
2023/08/15 09:35:50;;;;;;;7.65;1.95;;;;;;;;;;5029454;28;20033;-69
2023/08/15 09:38:16;;;;;;;7.78;1.88;;;;;;;;;;5030130;28;20873;-70
2023/08/15 09:40:44;;;;;;;4.35;1.48;;;;;;;;;;5031811;28;20071;-69
2023/08/15 09:43:15;;;;;;;7.70;1.75;;;;;;;;;;5029974;28;20461;-70
2023/08/15 09:45:41;;;;;;;11.25;2.80;;;;;;;;;;5028535;28;20679;-70
2023/08/15 09:48:08;;;;;;;5.60;1.30;;;;;;;;;;5032186;28;20051;-70
2023/08/15 09:50:35;;;;;;;6.40;1.63;;;;;;;;;;5026465;28;20036;-70
2023/08/15 09:53:01;;;;;;;13.18;1.50;;;;;;;;;;5022198;28;20161;-70
2023/08/15 09:55:28;;;;;;;6.03;1.20;;;;;;;;;;5027408;28;20033;-70
2023/08/15 09:57:54;;;;;;;9.15;1.83;;;;;;;;;;5022403;28;20036;-70
2023/08/15 10:00:20;;;;;;;5.43;1.50;;;;;;;;;;5031798;28;20056;-69
2023/08/15 10:02:48;;;;;;;4.85;1.50;;;;;;;;;;5024913;28;20619;-70
2023/08/15 10:05:17;;;;;;;7.97;2.00;;;;;;;;;;5027940;28;20029;-70
2023/08/15 10:07:44;;;;;;;11.80;2.25;;;;;;;;;;5020518;28;20033;-69
2023/08/15 10:10:10;;;;;;;7.18;1.83;;;;;;;;;;5028979;28;20090;-69
2023/08/15 10:12:38;;;;;;;6.47;1.70;;;;;;;;;;5023756;28;20032;-70
2023/08/15 10:15:06;;;;;;;6.82;1.67;;;;;;;;;;5028716;28;21771;-71
2023/08/15 10:17:32;;;;;;;5.70;1.40;;;;;;;;;;5023559;28;20414;-70
2023/08/15 10:20:02;;;;;;;6.13;1.30;;;;;;;;;;5030335;28;20036;-70
2023/08/15 10:22:30;;;;;;;6.80;1.83;;;;;;;;;;5024608;28;20024;-70
2023/08/15 10:25:16;;;;;;;8.82;1.73;;;;;;;;;;5030766;28;20056;-70
2023/08/15 10:27:45;;;;;;;4.97;1.20;;;;;;;;;;5022095;28;21242;-71
2023/08/15 10:30:11;;;;;;;6.03;1.45;;;;;;;;;;5031253;28;20040;-70
2023/08/15 10:32:37;;;;;;;3.67;1.25;;;;;;;;;;5023063;28;20032;-70
2023/08/15 10:35:05;;;;;;;7.78;1.48;;;;;;;;;;5031016;28;20051;-70
2023/08/15 10:37:36;;;;;;;4.57;1.50;;;;;;;;;;5024134;28;20025;-70
2023/08/15 10:40:07;;;;;;;3.60;1.20;;;;;;;;;;5031247;28;20152;-70
2023/08/15 10:42:54;;;;;;;5.57;1.30;;;;;;;;;;5022416;28;20385;-70
2023/08/15 10:45:20;;;;;;;4.75;1.15;;;;;;;;;;5017154;28;20040;-70
2023/08/15 10:47:46;;;;;;;5.35;1.38;;;;;;;;;;5013038;28;20047;-70
2023/08/15 10:50:13;;;;;;;5.40;1.50;;;;;;;;;;5028782;28;20808;-70
2023/08/15 10:52:42;;;;;;;6.38;1.70;;;;;;;;;;5024224;28;20044;-70
2023/08/15 10:55:08;;;;;;;5.25;1.38;;;;;;;;;;5030109;28;20054;-70
2023/08/15 10:57:34;;;;;;;5.28;1.35;;;;;;;;;;5022966;28;20029;-70
2023/08/15 11:00:01;;;;;;;3.80;1.00;;;;;;;;;;5028491;28;20095;-70
2023/08/15 11:02:27;;;;;;;4.45;1.15;;;;;;;;;;5016953;28;20153;-70
2023/08/15 11:04:53;;;;;;;4.75;1.20;;;;;;;;;;5029282;28;20708;-70
2023/08/15 11:07:26;;;;;;;5.88;1.15;;;;;;;;;;5028441;28;20021;-70
2023/08/15 11:09:52;;;;;;;3.75;1.00;;;;;;;;;;5029845;28;20032;-70
2023/08/15 11:12:18;;;;;;;4.65;1.35;;;;;;;;;;5028638;28;20037;-71
2023/08/15 11:14:52;;;;;;;4.72;1.33;;;;;;;;;;5028987;28;20122;-71
2023/08/15 11:17:18;;;;;;;4.38;1.40;;;;;;;;;;5030353;28;20031;-71
2023/08/15 11:19:46;;;;;;;5.65;1.02;;;;;;;;;;5029487;28;20036;-70
2023/08/15 11:22:12;;;;;;;4.78;1.42;;;;;;;;;;5028973;28;20072;-70
2023/08/15 11:24:38;;;;;;;2.90;1.08;;;;;;;;;;5030258;28;20037;-69
2023/08/15 11:27:04;;;;;;;5.90;1.50;;;;;;;;;;5022581;28;20121;-70
2023/08/15 11:29:30;;;;;;;5.30;1.33;;;;;;;;;;5030500;28;20064;-70
2023/08/15 11:32:00;;;;;;;5.10;1.33;;;;;;;;;;5029942;28;20068;-70
2023/08/15 11:34:26;;;;;;;4.20;1.25;;;;;;;;;;5027479;28;20028;-71
2023/08/15 11:36:52;;;;;;;6.22;1.33;;;;;;;;;;5029091;28;20037;-70
2023/08/15 11:39:18;;;;;;;5.35;1.30;;;;;;;;;;5025155;28;20136;-70
2023/08/15 11:41:44;;;;;;;6.38;1.77;;;;;;;;;;5020826;28;20090;-70
2023/08/15 11:44:10;;;;;;;5.45;1.27;;;;;;;;;;5028357;28;20037;-70
2023/08/15 11:46:37;;;;;;;12.32;1.60;;;;;;;;;;5020924;28;20043;-70
2023/08/15 11:49:03;;;;;;;4.45;1.60;;;;;;;;;;5016860;28;20029;-70
2023/08/15 11:51:29;;;;;;;5.53;1.60;;;;;;;;;;5020363;28;20115;-71
2023/08/15 11:53:56;;;;;;;6.78;1.60;;;;;;;;;;5020308;28;20086;-70
2023/08/15 11:56:22;;;;;;;4.97;1.70;;;;;;;;;;5015305;28;20041;-71
2023/08/15 11:58:49;;;;;;;6.28;1.30;;;;;;;;;;5029441;28;20368;-71
2023/08/15 12:01:15;;;;;;;4.78;1.42;;;;;;;;;;5021854;28;20043;-71
2023/08/15 12:03:41;;;;;;;6.55;1.65;;;;;;;;;;5029420;28;20040;-70
2023/08/15 12:06:08;;;;;;;3.95;1.40;;;;;;;;;;5022650;28;20116;-70
2023/08/15 12:08:34;;;;;;;6.50;1.63;;;;;;;;;;5030052;28;20167;-70
2023/08/15 12:11:03;;;;;;;6.32;1.55;;;;;;;;;;5023259;28;20071;-71
2023/08/15 12:13:32;;;;;;;5.95;1.30;;;;;;;;;;5030389;28;20097;-70
2023/08/15 12:15:59;;;;;;;6.97;1.52;;;;;;;;;;5021677;28;20059;-71
2023/08/15 12:18:25;;;;;;;5.82;1.40;;;;;;;;;;5029495;28;20044;-70
2023/08/15 12:20:51;;;;;;;6.28;1.65;;;;;;;;;;5022587;28;20099;-70
2023/08/15 12:23:17;;;;;;;6.13;1.80;;;;;;;;;;5030402;28;21747;-71
2023/08/15 12:25:43;;;;;;;4.43;1.35;;;;;;;;;;5024635;28;20929;-71
2023/08/15 12:28:09;;;;;;;8.15;1.88;;;;;;;;;;5035815;28;20037;-71
2023/08/15 12:30:35;;;;;;;5.40;1.75;;;;;;;;;;5027183;28;20048;-71
2023/08/15 12:33:01;;;;;;;4.82;1.70;;;;;;;;;;5036447;28;20032;-70
2023/08/15 12:35:28;;;;;;;7.28;2.03;;;;;;;;;;5028286;28;20071;-70
2023/08/15 12:37:54;;;;;;;5.30;1.55;;;;;;;;;;5038587;28;20071;-70
2023/08/15 12:40:20;;;;;;;7.07;2.55;;;;;;;;;;5032620;28;20036;-70
2023/08/15 12:42:46;;;;;;;7.68;1.85;;;;;;;;;;5039687;28;20133;-70
2023/08/15 12:45:12;;;;;;;7.72;2.03;;;;;;;;;;5032586;28;20080;-70
2023/08/15 12:47:38;;;;;;;4.57;1.33;;;;;;;;;;5039139;28;20033;-71
2023/08/15 12:50:05;;;;;;;7.00;1.60;;;;;;;;;;5039863;28;20041;-70
2023/08/15 12:52:31;;;;;;;7.03;1.65;;;;;;;;;;5040280;28;20036;-71
2023/08/15 12:54:57;;;;;;;6.20;1.50;;;;;;;;;;5040063;28;20052;-70
2023/08/15 12:57:23;;;;;;;4.43;1.65;;;;;;;;;;5039427;28;20033;-70
2023/08/15 12:59:49;;;;;;;4.75;1.95;;;;;;;;;;5039875;28;20028;-70
2023/08/15 13:02:15;;;;;;;5.95;2.10;;;;;;;;;;5038425;28;20039;-70
2023/08/15 13:04:42;;;;;;;5.97;1.77;;;;;;;;;;5038825;28;20037;-70
2023/08/15 13:07:08;;;;;;;6.97;1.88;;;;;;;;;;5021681;28;20036;-70
2023/08/15 13:09:34;;;;;;;5.80;1.50;;;;;;;;;;5034265;28;20056;-70
2023/08/15 13:12:00;;;;;;;5.28;1.75;;;;;;;;;;5037731;28;20532;-70
2023/08/15 13:14:26;;;;;;;7.22;2.50;;;;;;;;;;5021214;28;20143;-70
2023/08/15 13:16:52;;;;;;;5.60;1.90;;;;;;;;;;5038030;28;20044;-70
2023/08/15 13:19:18;;;;;;;4.15;1.63;;;;;;;;;;5035783;28;20029;-70
2023/08/15 13:21:44;;;;;;;5.78;1.85;;;;;;;;;;5034536;28;20041;-70
2023/08/15 13:24:10;;;;;;;8.45;2.30;;;;;;;;;;5038928;28;20065;-70
2023/08/15 13:26:36;;;;;;;5.95;1.70;;;;;;;;;;5038917;28;20070;-70
2023/08/15 13:29:03;;;;;;;4.13;1.52;;;;;;;;;;5018604;28;20044;-70
2023/08/15 13:31:29;;;;;;;6.53;1.60;;;;;;;;;;5038827;28;20074;-71
2023/08/15 13:33:55;;;;;;;4.45;1.52;;;;;;;;;;5037957;28;20025;-71
2023/08/15 13:36:21;;;;;;;4.78;1.95;;;;;;;;;;5033368;28;20033;-71
2023/08/15 13:38:47;;;;;;;4.65;1.45;;;;;;;;;;5038789;28;20044;-70
2023/08/15 13:41:13;;;;;;;4.85;1.30;;;;;;;;;;5030635;28;20052;-70
2023/08/15 13:43:40;;;;;;;6.18;2.00;;;;;;;;;;5039067;28;20111;-71
2023/08/15 13:46:07;;;;;;;7.40;1.90;;;;;;;;;;5037189;28;20144;-70
2023/08/15 13:48:33;;;;;;;6.13;1.75;;;;;;;;;;5036404;28;20039;-70
2023/08/15 13:51:00;;;;;;;7.50;2.05;;;;;;;;;;5035534;28;21022;-70
2023/08/15 13:53:27;;;;;;;8.00;2.05;;;;;;;;;;5037077;28;20033;-70
2023/08/15 13:55:55;;;;;;;11.18;2.00;;;;;;;;;;5037033;28;20033;-70
2023/08/15 13:58:22;;;;;;;4.57;1.77;;;;;;;;;;5037156;28;20064;-70
2023/08/15 14:00:48;;;;;;;7.50;1.65;;;;;;;;;;5029598;28;20037;-69
2023/08/15 14:03:14;;;;;;;5.22;2.03;;;;;;;;;;5030376;28;20037;-70
2023/08/15 14:05:40;;;;;;;7.82;2.10;;;;;;;;;;5031330;28;20082;-70
2023/08/15 14:08:06;;;;;;;4.93;1.90;;;;;;;;;;5038407;28;20056;-70
2023/08/15 14:10:33;;;;;;;4.90;1.55;;;;;;;;;;5038041;28;20028;-71
2023/08/15 14:12:59;;;;;;;5.93;1.75;;;;;;;;;;5038321;28;20907;-71
2023/08/15 14:15:25;;;;;;;6.95;2.20;;;;;;;;;;5037980;28;20087;-71
2023/08/15 14:17:51;;;;;;;5.30;1.90;;;;;;;;;;5038645;28;20017;-71
2023/08/15 14:20:19;;;;;;;8.07;2.20;;;;;;;;;;5031242;28;20087;-71
2023/08/15 14:22:45;;;;;;;8.88;2.13;;;;;;;;;;5038014;28;20043;-71
2023/08/15 14:25:11;;;;;;;7.55;2.38;;;;;;;;;;5037812;28;20029;-70
2023/08/15 14:27:37;;;;;;;6.85;2.78;;;;;;;;;;5036485;28;21824;-71
2023/08/15 14:30:03;;;;;;;7.88;2.50;;;;;;;;;;5021149;28;20037;-71
2023/08/15 14:32:29;;;;;;;7.07;2.58;;;;;;;;;;5038295;28;20061;-71
2023/08/15 14:34:56;;;;;;;8.27;2.35;;;;;;;;;;5031556;28;20076;-71